Time;durP1;ratioP1;P1;durP2;ratioP2;P2;SDS_P1;SDS_P2;PMS_P1;PMS_P2;Temp;Humidity;BMP_temperature;BMP_pressure;BME280_temperature;BME280_humidity;BME280_pressure;Samples;Min_cycle;Max_cycle;Signal;HPM_P1;HPM_P2
2022/07/25 00:01:51;;;;;;;12.20;10.90;;;;;;;;;;4943562;28;20490;-57
2022/07/25 00:04:17;;;;;;;11.43;10.33;;;;;;;;;;4944006;28;21932;-56
2022/07/25 00:07:09;;;;;;;13.13;11.77;;;;;;;;;;4936748;28;20496;-58
2022/07/25 00:09:42;;;;;;;12.27;10.43;;;;;;;;;;4942227;28;20454;-57
2022/07/25 00:12:13;;;;;;;12.13;10.93;;;;;;;;;;4959391;28;20534;-56
2022/07/25 00:14:43;;;;;;;11.97;10.70;;;;;;;;;;4928637;28;20485;-57
2022/07/25 00:17:11;;;;;;;12.50;11.27;;;;;;;;;;4948550;28;20438;-56
2022/07/25 00:19:37;;;;;;;12.00;10.80;;;;;;;;;;4961344;28;20439;-56
2022/07/25 00:22:04;;;;;;;13.50;12.07;;;;;;;;;;4956692;28;21377;-56
2022/07/25 00:24:42;;;;;;;13.30;10.33;;;;;;;;;;4936803;28;20486;-58
2022/07/25 00:27:08;;;;;;;12.50;11.30;;;;;;;;;;4942327;28;20520;-57
2022/07/25 00:29:41;;;;;;;12.83;11.53;;;;;;;;;;4945604;28;20506;-56
2022/07/25 00:32:07;;;;;;;12.50;11.20;;;;;;;;;;4950550;28;20549;-56
2022/07/25 00:34:42;;;;;;;12.13;10.93;;;;;;;;;;4931092;28;20604;-57
2022/07/25 00:37:10;;;;;;;12.20;11.00;;;;;;;;;;4925894;28;20509;-57
2022/07/25 00:39:36;;;;;;;12.17;10.80;;;;;;;;;;4952111;28;20470;-57
2022/07/25 00:42:07;;;;;;;12.67;11.47;;;;;;;;;;4915420;28;21262;-57
2022/07/25 00:44:35;;;;;;;12.53;11.23;;;;;;;;;;4951954;28;20451;-56
2022/07/25 00:47:37;;;;;;;11.47;10.37;;;;;;;;;;4946827;28;20432;-58
2022/07/25 00:50:05;;;;;;;12.30;11.00;;;;;;;;;;4948228;28;20443;-57
2022/07/25 00:52:40;;;;;;;13.20;11.90;;;;;;;;;;4944337;28;20538;-57
2022/07/25 00:55:06;;;;;;;13.20;10.80;;;;;;;;;;4944699;28;20967;-57
2022/07/25 00:57:32;;;;;;;12.60;11.50;;;;;;;;;;4918574;28;20462;-57
2022/07/25 00:59:58;;;;;;;11.70;10.47;;;;;;;;;;4946987;28;20434;-57
2022/07/25 01:02:49;;;;;;;13.20;11.80;;;;;;;;;;4935889;28;20474;-57
2022/07/25 01:05:17;;;;;;;12.33;11.03;;;;;;;;;;4949602;28;20454;-57
2022/07/25 01:07:43;;;;;;;12.13;10.90;;;;;;;;;;4926772;28;20450;-56
2022/07/25 01:10:10;;;;;;;13.60;12.30;;;;;;;;;;4953130;28;20450;-57
2022/07/25 01:15:33;;;;;;;12.60;11.30;;;;;;;;;;4944589;28;20657;-57
2022/07/25 01:17:59;;;;;;;11.70;10.60;;;;;;;;;;4929752;28;20427;-55
2022/07/25 01:20:27;;;;;;;10.80;9.73;;;;;;;;;;4945203;28;20548;-57
2022/07/25 01:22:53;;;;;;;12.40;10.73;;;;;;;;;;4945708;28;20482;-56
2022/07/25 01:25:19;;;;;;;12.03;10.17;;;;;;;;;;4948762;28;20452;-56
2022/07/25 01:27:45;;;;;;;11.23;9.70;;;;;;;;;;4922813;28;20550;-57
2022/07/25 01:30:13;;;;;;;13.07;11.73;;;;;;;;;;4945515;28;20443;-57
2022/07/25 01:32:40;;;;;;;11.90;10.10;;;;;;;;;;4934099;28;20443;-57
2022/07/25 01:35:10;;;;;;;12.93;11.70;;;;;;;;;;4945625;28;20445;-57
2022/07/25 01:37:37;;;;;;;13.00;11.70;;;;;;;;;;4941418;28;20451;-58
2022/07/25 01:40:03;;;;;;;12.97;11.80;;;;;;;;;;4934259;29;20521;-57
2022/07/25 01:42:46;;;;;;;12.97;10.53;;;;;;;;;;4919874;28;20505;-57
2022/07/25 01:45:12;;;;;;;17.93;10.87;;;;;;;;;;4948507;28;20484;-57
2022/07/25 01:48:03;;;;;;;11.67;10.50;;;;;;;;;;4937440;28;20455;-57
2022/07/25 01:50:30;;;;;;;12.33;10.80;;;;;;;;;;4949720;28;20565;-56
2022/07/25 01:52:57;;;;;;;12.03;10.83;;;;;;;;;;4944639;28;20442;-57
2022/07/25 01:55:23;;;;;;;12.03;10.37;;;;;;;;;;4945754;28;20447;-57
2022/07/25 01:57:50;;;;;;;13.10;11.70;;;;;;;;;;4927530;28;20449;-59
2022/07/25 02:00:17;;;;;;;12.30;11.17;;;;;;;;;;4946911;28;20465;-57
2022/07/25 02:02:43;;;;;;;13.20;11.37;;;;;;;;;;4919338;28;20599;-57
2022/07/25 02:05:10;;;;;;;13.50;12.03;;;;;;;;;;4946068;28;20442;-57
2022/07/25 02:07:41;;;;;;;14.07;12.27;;;;;;;;;;4940998;28;20442;-56
2022/07/25 02:10:08;;;;;;;12.87;11.57;;;;;;;;;;4929336;28;20588;-57
2022/07/25 02:12:34;;;;;;;13.43;12.13;;;;;;;;;;4942449;28;20480;-58
2022/07/25 02:15:00;;;;;;;13.87;12.50;;;;;;;;;;4940431;28;21417;-57
2022/07/25 02:17:44;;;;;;;13.30;11.90;;;;;;;;;;4938161;28;23290;-58
2022/07/25 02:20:10;;;;;;;15.40;11.70;;;;;;;;;;4944549;28;20560;-57
2022/07/25 02:22:56;;;;;;;12.93;10.77;;;;;;;;;;4940767;28;20525;-56
2022/07/25 02:25:25;;;;;;;12.23;11.03;;;;;;;;;;4940159;28;21168;-57
2022/07/25 02:27:59;;;;;;;12.47;11.20;;;;;;;;;;4935104;28;21043;-56
2022/07/25 02:30:25;;;;;;;14.43;11.40;;;;;;;;;;4956711;28;20569;-57
2022/07/25 02:32:51;;;;;;;12.10;10.23;;;;;;;;;;4925376;28;20618;-57
2022/07/25 02:35:17;;;;;;;13.63;12.23;;;;;;;;;;4941227;28;20447;-56
2022/07/25 02:37:45;;;;;;;11.43;10.33;;;;;;;;;;4943200;28;20600;-57
2022/07/25 02:40:12;;;;;;;15.97;11.23;;;;;;;;;;4945082;28;20446;-57
2022/07/25 02:42:38;;;;;;;12.57;11.27;;;;;;;;;;4928452;28;20499;-56
2022/07/25 02:45:05;;;;;;;12.70;10.80;;;;;;;;;;4947262;28;20948;-57
2022/07/25 02:47:37;;;;;;;11.77;10.53;;;;;;;;;;4947172;28;20884;-58
2022/07/25 02:50:06;;;;;;;11.00;9.90;;;;;;;;;;4943502;28;20540;-57
2022/07/25 02:52:56;;;;;;;12.57;11.27;;;;;;;;;;4950646;28;21097;-59
2022/07/25 02:55:27;;;;;;;11.60;10.40;;;;;;;;;;4947245;28;20768;-57
2022/07/25 02:57:57;;;;;;;11.97;10.77;;;;;;;;;;4926726;28;21483;-57
2022/07/25 03:00:24;;;;;;;11.40;10.30;;;;;;;;;;4944911;28;20446;-58
2022/07/25 03:02:50;;;;;;;12.10;10.90;;;;;;;;;;4950336;28;21055;-57
2022/07/25 03:05:16;;;;;;;11.57;10.37;;;;;;;;;;4943776;28;20471;-57
2022/07/25 03:07:43;;;;;;;11.23;10.03;;;;;;;;;;4921916;28;20447;-56
2022/07/25 03:10:11;;;;;;;11.87;10.50;;;;;;;;;;4947848;28;20474;-58
2022/07/25 03:12:37;;;;;;;10.33;9.23;;;;;;;;;;4923500;28;20454;-57
2022/07/25 03:15:04;;;;;;;12.33;10.40;;;;;;;;;;4947952;28;20509;-60
2022/07/25 03:17:37;;;;;;;10.97;9.20;;;;;;;;;;4955005;28;20442;-56
2022/07/25 03:20:03;;;;;;;11.97;10.70;;;;;;;;;;4945065;28;20458;-58
2022/07/25 03:22:31;;;;;;;11.50;10.40;;;;;;;;;;4938704;28;20600;-57
2022/07/25 03:24:57;;;;;;;12.07;10.87;;;;;;;;;;4943327;28;20775;-56
2022/07/25 03:27:48;;;;;;;11.30;10.20;;;;;;;;;;4937303;28;20541;-57
2022/07/25 03:30:16;;;;;;;11.50;9.30;;;;;;;;;;4943289;28;22189;-57
2022/07/25 03:32:47;;;;;;;11.30;9.30;;;;;;;;;;4924582;28;21244;-56
2022/07/25 03:35:14;;;;;;;11.30;10.03;;;;;;;;;;4941724;28;20478;-57
2022/07/25 03:37:40;;;;;;;11.90;9.67;;;;;;;;;;4919416;28;20475;-57
2022/07/25 03:40:06;;;;;;;11.87;10.60;;;;;;;;;;4941659;28;20459;-56
2022/07/25 03:42:37;;;;;;;15.83;10.10;;;;;;;;;;4923537;28;20581;-57
2022/07/25 03:45:03;;;;;;;11.93;9.97;;;;;;;;;;4945790;28;21031;-56
2022/07/25 03:47:42;;;;;;;11.27;10.17;;;;;;;;;;4941828;28;20447;-57
2022/07/25 03:50:09;;;;;;;10.57;9.47;;;;;;;;;;4940965;28;20446;-57
2022/07/25 03:52:38;;;;;;;12.80;11.53;;;;;;;;;;4943092;28;20628;-58
2022/07/25 03:55:08;;;;;;;12.10;10.87;;;;;;;;;;4939426;28;20453;-57
2022/07/25 03:57:53;;;;;;;11.50;10.30;;;;;;;;;;4943867;28;20443;-56
2022/07/25 04:00:26;;;;;;;13.43;10.57;;;;;;;;;;4942068;28;20446;-56
2022/07/25 04:03:28;;;;;;;12.50;11.20;;;;;;;;;;4938766;28;21154;-57
2022/07/25 04:05:59;;;;;;;11.37;10.27;;;;;;;;;;4941522;28;20438;-57
2022/07/25 04:08:39;;;;;;;12.70;11.40;;;;;;;;;;4933053;28;21003;-57
2022/07/25 04:11:06;;;;;;;17.23;11.80;;;;;;;;;;4941683;28;21456;-56
2022/07/25 04:13:42;;;;;;;13.33;10.50;;;;;;;;;;4937962;28;20623;-57
2022/07/25 04:16:09;;;;;;;13.93;12.50;;;;;;;;;;4943369;28;20434;-56
2022/07/25 04:18:36;;;;;;;10.30;9.23;;;;;;;;;;4942486;28;21088;-57
2022/07/25 04:21:02;;;;;;;11.97;10.70;;;;;;;;;;4926684;28;20442;-57
2022/07/25 04:23:28;;;;;;;13.03;10.57;;;;;;;;;;4943971;28;20533;-55
2022/07/25 04:25:55;;;;;;;12.30;11.10;;;;;;;;;;4919789;28;20449;-55
2022/07/25 04:28:21;;;;;;;10.90;9.80;;;;;;;;;;4945080;28;20474;-58
2022/07/25 04:30:47;;;;;;;11.80;10.70;;;;;;;;;;4913905;28;20443;-57
2022/07/25 04:33:14;;;;;;;10.90;9.67;;;;;;;;;;4950883;28;20435;-57
2022/07/25 04:35:40;;;;;;;11.90;9.73;;;;;;;;;;4929757;28;20880;-57
2022/07/25 04:38:06;;;;;;;12.30;10.90;;;;;;;;;;4956530;28;20808;-57
2022/07/25 04:40:32;;;;;;;10.77;9.70;;;;;;;;;;4915095;28;20457;-57
2022/07/25 04:42:58;;;;;;;12.10;10.33;;;;;;;;;;4951756;28;20480;-55
2022/07/25 04:45:24;;;;;;;10.30;9.30;;;;;;;;;;4918640;28;20497;-55
2022/07/25 04:47:50;;;;;;;12.17;10.20;;;;;;;;;;4954385;28;20445;-56
2022/07/25 04:50:16;;;;;;;10.77;9.63;;;;;;;;;;4943607;28;20514;-56
2022/07/25 04:52:43;;;;;;;12.57;11.37;;;;;;;;;;4952727;28;21349;-56
2022/07/25 04:55:09;;;;;;;13.60;11.10;;;;;;;;;;4930869;28;20431;-56
2022/07/25 04:57:35;;;;;;;10.97;9.87;;;;;;;;;;4946298;28;20435;-55
2022/07/25 05:00:01;;;;;;;12.87;11.43;;;;;;;;;;4921284;28;20437;-59
2022/07/25 05:05:31;;;;;;;10.50;9.17;;;;;;;;;;4927855;28;20893;-57
2022/07/25 05:07:58;;;;;;;10.77;9.67;;;;;;;;;;4940607;28;20797;-56
2022/07/25 05:10:30;;;;;;;10.73;9.63;;;;;;;;;;4919602;28;20469;-56
2022/07/25 05:12:57;;;;;;;11.80;10.70;;;;;;;;;;4943005;28;20944;-57
2022/07/25 05:15:23;;;;;;;11.93;9.97;;;;;;;;;;4929932;28;20450;-56
2022/07/25 05:17:50;;;;;;;11.23;10.13;;;;;;;;;;4943289;28;20251;-55
2022/07/25 05:20:16;;;;;;;11.40;10.20;;;;;;;;;;4927188;28;20731;-56
2022/07/25 05:22:42;;;;;;;11.53;9.90;;;;;;;;;;4941531;28;20482;-55
2022/07/25 05:25:39;;;;;;;12.40;11.13;;;;;;;;;;4935836;28;20785;-56
2022/07/25 05:28:10;;;;;;;10.90;9.90;;;;;;;;;;4931330;28;20764;-57
2022/07/25 05:31:04;;;;;;;11.17;10.00;;;;;;;;;;4946578;28;20510;-58
2022/07/25 05:33:39;;;;;;;11.13;10.03;;;;;;;;;;4936075;28;20481;-57
2022/07/25 05:39:16;;;;;;;11.80;10.60;;;;;;;;;;4932818;28;20490;-57
2022/07/25 05:41:42;;;;;;;10.40;9.07;;;;;;;;;;4926815;28;20450;-57
2022/07/25 05:44:08;;;;;;;10.80;9.07;;;;;;;;;;4945141;28;20819;-56
2022/07/25 05:46:34;;;;;;;11.63;10.53;;;;;;;;;;4923360;28;20440;-58
2022/07/25 05:49:00;;;;;;;10.80;9.70;;;;;;;;;;4950330;28;20431;-56
2022/07/25 05:51:27;;;;;;;10.00;9.07;;;;;;;;;;4921719;28;20450;-56
2022/07/25 05:53:53;;;;;;;13.17;9.53;;;;;;;;;;4934129;28;20820;-57
2022/07/25 05:56:19;;;;;;;10.50;9.40;;;;;;;;;;4937053;28;20451;-61
2022/07/25 05:58:45;;;;;;;10.60;9.60;;;;;;;;;;4935137;28;21773;-56
2022/07/25 06:01:12;;;;;;;10.90;9.90;;;;;;;;;;4936523;28;20609;-57
2022/07/25 06:03:38;;;;;;;11.23;9.83;;;;;;;;;;4947295;28;20490;-57
2022/07/25 06:06:04;;;;;;;11.30;10.10;;;;;;;;;;4947514;28;20451;-56
2022/07/25 06:11:33;;;;;;;10.73;9.60;;;;;;;;;;4921959;28;20514;-56
2022/07/25 06:14:13;;;;;;;10.57;9.53;;;;;;;;;;4940687;28;20498;-57
2022/07/25 06:16:39;;;;;;;12.83;9.60;;;;;;;;;;4922679;28;20982;-57
2022/07/25 06:19:05;;;;;;;9.10;8.20;;;;;;;;;;4914665;28;20956;-56
2022/07/25 06:21:32;;;;;;;11.20;9.53;;;;;;;;;;4947397;28;20450;-58
2022/07/25 06:23:58;;;;;;;11.20;10.10;;;;;;;;;;4929383;28;20451;-57
2022/07/25 06:26:24;;;;;;;10.37;9.23;;;;;;;;;;4946727;28;20434;-57
2022/07/25 06:28:51;;;;;;;9.87;8.87;;;;;;;;;;4953104;28;20502;-56
2022/07/25 06:31:18;;;;;;;13.43;10.00;;;;;;;;;;4933525;28;20439;-57
2022/07/25 06:33:45;;;;;;;9.57;8.53;;;;;;;;;;4925634;28;20462;-56
2022/07/25 06:36:11;;;;;;;9.83;8.83;;;;;;;;;;4950748;28;20443;-55
2022/07/25 06:38:37;;;;;;;11.00;9.90;;;;;;;;;;4941399;28;21193;-57
2022/07/25 06:41:03;;;;;;;10.73;8.80;;;;;;;;;;4944742;28;20568;-57
2022/07/25 06:43:29;;;;;;;10.77;9.70;;;;;;;;;;4924478;28;20929;-62
2022/07/25 06:46:20;;;;;;;10.97;9.93;;;;;;;;;;4907440;28;20447;-57
2022/07/25 06:48:47;;;;;;;11.17;10.07;;;;;;;;;;4942691;28;20485;-57
2022/07/25 06:51:28;;;;;;;10.53;9.50;;;;;;;;;;4925033;28;21200;-58
2022/07/25 06:53:57;;;;;;;10.43;9.33;;;;;;;;;;4939898;28;20454;-57
2022/07/25 06:56:37;;;;;;;10.33;9.33;;;;;;;;;;4943290;28;20466;-57
2022/07/25 06:59:18;;;;;;;10.00;9.00;;;;;;;;;;4932085;28;20451;-58
2022/07/25 07:02:03;;;;;;;11.63;10.53;;;;;;;;;;4934856;28;20868;-58
2022/07/25 07:04:30;;;;;;;11.57;10.37;;;;;;;;;;4946672;28;20485;-57
2022/07/25 07:06:56;;;;;;;10.67;9.70;;;;;;;;;;4939799;28;20439;-57
2022/07/25 07:09:22;;;;;;;11.33;10.43;;;;;;;;;;4948898;28;20465;-57
2022/07/25 07:11:49;;;;;;;11.87;10.00;;;;;;;;;;4943846;28;20206;-56
2022/07/25 07:14:16;;;;;;;11.50;10.43;;;;;;;;;;4949658;28;20454;-56
2022/07/25 07:19:45;;;;;;;11.50;10.30;;;;;;;;;;4908476;28;20494;-57
2022/07/25 07:22:11;;;;;;;11.97;10.87;;;;;;;;;;4954212;28;20485;-58
2022/07/25 07:24:38;;;;;;;10.73;9.77;;;;;;;;;;4931046;28;20450;-57
2022/07/25 07:27:05;;;;;;;12.10;11.00;;;;;;;;;;4947806;28;20447;-57
2022/07/25 07:29:31;;;;;;;11.73;10.53;;;;;;;;;;4935571;28;20467;-57
2022/07/25 07:31:57;;;;;;;11.07;10.00;;;;;;;;;;4944095;28;20515;-58
2022/07/25 07:34:24;;;;;;;12.03;10.93;;;;;;;;;;4923611;28;20567;-56
2022/07/25 07:36:50;;;;;;;11.63;10.60;;;;;;;;;;4945235;28;20824;-60
2022/07/25 07:39:17;;;;;;;11.53;10.53;;;;;;;;;;4942136;28;20921;-58
2022/07/25 07:41:44;;;;;;;12.00;10.37;;;;;;;;;;4947158;28;20963;-58
2022/07/25 07:44:10;;;;;;;10.60;9.60;;;;;;;;;;4928367;28;20482;-57
2022/07/25 07:46:37;;;;;;;11.57;10.57;;;;;;;;;;4943019;28;20438;-57
2022/07/25 07:49:03;;;;;;;12.87;11.67;;;;;;;;;;4910672;28;20482;-58
2022/07/25 07:51:29;;;;;;;11.20;10.10;;;;;;;;;;4944521;28;20877;-56
2022/07/25 07:56:40;;;;;;;11.90;10.70;;;;;;;;;;4947476;28;20541;-60
2022/07/25 07:59:07;;;;;;;11.63;10.53;;;;;;;;;;4948174;28;20470;-57
2022/07/25 08:01:33;;;;;;;11.33;10.27;;;;;;;;;;4957148;28;20434;-58
2022/07/25 08:04:00;;;;;;;11.87;10.53;;;;;;;;;;4925139;28;20446;-57
2022/07/25 08:06:26;;;;;;;11.40;10.30;;;;;;;;;;4943809;28;20438;-58
2022/07/25 08:08:53;;;;;;;11.80;10.60;;;;;;;;;;4934833;28;20485;-57
2022/07/25 08:11:19;;;;;;;11.90;10.80;;;;;;;;;;4940378;28;20446;-57
2022/07/25 08:13:45;;;;;;;11.83;10.73;;;;;;;;;;4937764;28;20454;-57
2022/07/25 08:16:12;;;;;;;11.03;10.03;;;;;;;;;;4936762;28;20525;-56
2022/07/25 08:18:38;;;;;;;11.33;10.17;;;;;;;;;;4924632;28;20477;-57
2022/07/25 08:21:05;;;;;;;11.07;10.03;;;;;;;;;;4942114;28;21002;-56
2022/07/25 08:23:46;;;;;;;10.70;9.60;;;;;;;;;;4917828;28;22717;-60
2022/07/25 08:26:13;;;;;;;10.80;9.80;;;;;;;;;;4956673;28;20542;-57
2022/07/25 08:28:49;;;;;;;10.53;9.50;;;;;;;;;;4920394;28;20525;-57
2022/07/25 08:31:16;;;;;;;10.13;9.27;;;;;;;;;;4955251;28;20533;-57
2022/07/25 08:33:42;;;;;;;11.93;10.87;;;;;;;;;;4944606;28;20442;-58
2022/07/25 08:36:10;;;;;;;10.60;9.50;;;;;;;;;;4945234;28;20453;-57
2022/07/25 08:38:36;;;;;;;11.10;10.10;;;;;;;;;;4908431;28;20686;-58
2022/07/25 08:41:03;;;;;;;10.40;9.50;;;;;;;;;;4959221;28;20419;-57
2022/07/25 08:43:32;;;;;;;10.30;9.37;;;;;;;;;;4909303;28;20609;-57
2022/07/25 08:45:59;;;;;;;10.80;9.90;;;;;;;;;;4940975;28;20446;-58
2022/07/25 08:48:32;;;;;;;10.63;9.63;;;;;;;;;;4934714;28;20449;-59
2022/07/25 08:50:58;;;;;;;11.47;10.37;;;;;;;;;;4945732;28;20453;-57
2022/07/25 08:53:55;;;;;;;11.17;10.10;;;;;;;;;;4932890;28;20453;-59
2022/07/25 08:56:23;;;;;;;9.60;8.70;;;;;;;;;;4941639;28;20456;-58
2022/07/25 08:59:22;;;;;;;9.53;8.63;;;;;;;;;;4932783;28;20442;-58
2022/07/25 09:01:54;;;;;;;9.83;9.03;;;;;;;;;;4941577;28;20502;-59
2022/07/25 09:04:21;;;;;;;9.30;8.47;;;;;;;;;;4934124;28;20902;-57
2022/07/25 09:06:50;;;;;;;9.30;8.47;;;;;;;;;;4954009;28;21725;-59
2022/07/25 09:09:16;;;;;;;10.93;9.97;;;;;;;;;;4928140;28;20932;-57
2022/07/25 09:11:42;;;;;;;9.93;9.03;;;;;;;;;;4941369;28;20474;-56
2022/07/25 09:14:09;;;;;;;10.10;9.20;;;;;;;;;;4927919;28;20562;-57
2022/07/25 09:16:41;;;;;;;9.83;8.93;;;;;;;;;;4942165;28;20847;-61
2022/07/25 09:19:09;;;;;;;10.13;9.17;;;;;;;;;;4942713;28;20554;-58
2022/07/25 09:21:36;;;;;;;9.20;8.40;;;;;;;;;;4945722;28;20442;-58
2022/07/25 09:27:09;;;;;;;10.73;9.80;;;;;;;;;;4927604;28;20533;-57
2022/07/25 09:29:35;;;;;;;10.53;9.53;;;;;;;;;;4941537;28;20442;-55
2022/07/25 09:32:01;;;;;;;11.20;10.10;;;;;;;;;;4947240;28;20449;-57
2022/07/25 09:34:33;;;;;;;11.00;10.00;;;;;;;;;;4942430;28;20442;-56
2022/07/25 09:37:13;;;;;;;10.23;8.77;;;;;;;;;;4942290;28;20558;-57
2022/07/25 09:39:48;;;;;;;10.20;9.27;;;;;;;;;;4920133;28;20949;-57
2022/07/25 09:42:16;;;;;;;12.40;11.13;;;;;;;;;;4941963;28;20509;-57
2022/07/25 09:44:42;;;;;;;11.23;10.27;;;;;;;;;;4928901;28;20514;-57
2022/07/25 09:47:11;;;;;;;10.50;9.03;;;;;;;;;;4945331;28;20447;-57
2022/07/25 09:49:39;;;;;;;10.60;9.70;;;;;;;;;;4941153;28;20435;-58
2022/07/25 09:52:05;;;;;;;10.33;9.20;;;;;;;;;;4946575;28;20861;-57
2022/07/25 09:54:31;;;;;;;10.70;9.60;;;;;;;;;;4920620;28;20510;-57
2022/07/25 09:56:57;;;;;;;10.47;9.57;;;;;;;;;;4950919;28;20528;-58
2022/07/25 09:59:23;;;;;;;12.20;11.00;;;;;;;;;;4926065;28;20940;-56
2022/07/25 10:01:52;;;;;;;12.23;10.93;;;;;;;;;;4949291;28;20438;-56
2022/07/25 10:04:21;;;;;;;10.67;9.77;;;;;;;;;;4941509;28;20191;-56
2022/07/25 10:06:50;;;;;;;11.33;10.30;;;;;;;;;;4948045;28;21016;-58
2022/07/25 10:09:16;;;;;;;10.43;9.47;;;;;;;;;;4926204;28;20540;-57
2022/07/25 10:12:01;;;;;;;11.33;10.13;;;;;;;;;;4939811;28;20456;-57
2022/07/25 10:14:27;;;;;;;10.47;9.57;;;;;;;;;;4918168;28;20198;-58
2022/07/25 10:16:53;;;;;;;11.10;10.10;;;;;;;;;;4943066;28;20432;-56
2022/07/25 10:19:35;;;;;;;11.23;10.23;;;;;;;;;;4928204;28;20554;-57
2022/07/25 10:22:01;;;;;;;8.77;7.90;;;;;;;;;;4953345;28;20467;-57
2022/07/25 10:24:33;;;;;;;9.63;8.73;;;;;;;;;;4919487;28;20454;-56
2022/07/25 10:27:04;;;;;;;10.23;9.43;;;;;;;;;;4946175;28;20443;-56
2022/07/25 10:29:34;;;;;;;9.20;8.37;;;;;;;;;;4936855;28;20466;-57
2022/07/25 10:35:19;;;;;;;11.10;10.03;;;;;;;;;;4921357;28;20803;-57
2022/07/25 10:37:46;;;;;;;12.83;9.90;;;;;;;;;;4928984;28;20717;-57
2022/07/25 10:40:12;;;;;;;10.67;8.90;;;;;;;;;;4948898;28;20447;-58
2022/07/25 10:42:45;;;;;;;11.33;10.30;;;;;;;;;;4936799;28;20517;-57
2022/07/25 10:45:11;;;;;;;11.23;10.10;;;;;;;;;;4937843;28;20202;-57
2022/07/25 10:47:51;;;;;;;15.23;9.27;;;;;;;;;;4946587;28;20450;-56
2022/07/25 10:50:17;;;;;;;10.70;9.43;;;;;;;;;;4944522;28;20207;-57
2022/07/25 10:52:46;;;;;;;8.40;7.70;;;;;;;;;;4929480;28;21198;-58
2022/07/25 10:55:21;;;;;;;8.83;8.07;;;;;;;;;;4929624;28;20498;-57
2022/07/25 10:57:47;;;;;;;8.37;7.50;;;;;;;;;;4940777;28;20426;-56
2022/07/25 11:00:20;;;;;;;9.40;8.60;;;;;;;;;;4949022;28;20457;-57
2022/07/25 11:02:46;;;;;;;8.63;7.93;;;;;;;;;;4940018;28;20485;-57
2022/07/25 11:05:19;;;;;;;8.20;7.50;;;;;;;;;;4913262;28;20438;-57
2022/07/25 11:07:52;;;;;;;8.47;7.67;;;;;;;;;;4919327;28;20661;-57
2022/07/25 11:10:24;;;;;;;9.60;8.70;;;;;;;;;;4945080;28;20462;-57
2022/07/25 11:12:50;;;;;;;9.20;8.30;;;;;;;;;;4925272;28;20446;-57
2022/07/25 11:15:16;;;;;;;9.57;8.77;;;;;;;;;;4944852;28;23755;-56
2022/07/25 11:17:52;;;;;;;8.60;7.77;;;;;;;;;;4920656;28;20183;-61
2022/07/25 11:20:18;;;;;;;9.80;7.70;;;;;;;;;;4939536;28;20201;-56
2022/07/25 11:22:54;;;;;;;8.57;7.87;;;;;;;;;;4921650;28;20490;-57
2022/07/25 11:25:21;;;;;;;9.70;8.80;;;;;;;;;;4938516;28;20438;-57
2022/07/25 11:27:57;;;;;;;9.77;8.87;;;;;;;;;;4939503;28;20522;-57
2022/07/25 11:30:23;;;;;;;8.77;7.97;;;;;;;;;;4947029;28;20430;-57
2022/07/25 11:32:50;;;;;;;8.60;7.80;;;;;;;;;;4947784;28;20557;-57
2022/07/25 11:35:19;;;;;;;8.37;7.60;;;;;;;;;;4945155;28;20446;-58
2022/07/25 11:37:47;;;;;;;8.47;7.77;;;;;;;;;;4903287;28;20446;-57
2022/07/25 11:40:15;;;;;;;8.90;8.00;;;;;;;;;;4943397;28;20941;-57
2022/07/25 11:42:47;;;;;;;8.30;7.60;;;;;;;;;;4926486;28;21000;-57
2022/07/25 11:45:17;;;;;;;7.07;6.47;;;;;;;;;;4940154;28;20431;-57
2022/07/25 11:47:43;;;;;;;8.13;7.47;;;;;;;;;;4942642;28;20944;-57
2022/07/25 11:50:13;;;;;;;6.77;6.07;;;;;;;;;;4938924;28;20445;-56
2022/07/25 11:52:44;;;;;;;6.30;5.77;;;;;;;;;;4919687;28;20195;-57
2022/07/25 11:55:16;;;;;;;6.40;4.87;;;;;;;;;;4936551;28;20435;-58
2022/07/25 11:57:45;;;;;;;5.47;5.03;;;;;;;;;;4919034;28;20450;-56
2022/07/25 12:00:14;;;;;;;5.43;5.03;;;;;;;;;;4940838;28;20509;-57
2022/07/25 12:02:40;;;;;;;5.40;4.83;;;;;;;;;;4914047;28;20478;-57
2022/07/25 12:05:07;;;;;;;5.87;5.37;;;;;;;;;;4947653;28;20529;-58
2022/07/25 12:07:40;;;;;;;5.20;4.70;;;;;;;;;;4938822;28;20443;-57
2022/07/25 12:10:16;;;;;;;5.63;5.20;;;;;;;;;;4950365;28;20924;-58
2022/07/25 12:12:50;;;;;;;5.63;5.13;;;;;;;;;;4913880;28;21235;-57
2022/07/25 12:15:21;;;;;;;5.80;5.30;;;;;;;;;;4930273;28;20446;-57
2022/07/25 12:18:08;;;;;;;5.60;5.10;;;;;;;;;;4934217;28;20467;-57
2022/07/25 12:20:38;;;;;;;6.40;5.60;;;;;;;;;;4937342;28;20434;-57
2022/07/25 12:23:05;;;;;;;6.77;6.17;;;;;;;;;;4926235;28;20479;-57
2022/07/25 12:25:35;;;;;;;7.90;7.10;;;;;;;;;;4933721;28;20435;-58
2022/07/25 12:28:01;;;;;;;7.87;7.27;;;;;;;;;;4927957;28;20484;-57
2022/07/25 12:30:28;;;;;;;8.43;7.43;;;;;;;;;;4925928;28;20443;-57
2022/07/25 12:32:55;;;;;;;7.50;5.80;;;;;;;;;;4941003;28;20438;-57
2022/07/25 12:35:21;;;;;;;8.43;7.40;;;;;;;;;;4924063;28;20459;-57
2022/07/25 12:37:47;;;;;;;9.30;8.07;;;;;;;;;;4896540;28;21010;-57
2022/07/25 12:40:13;;;;;;;7.43;6.73;;;;;;;;;;4933977;28;20453;-58
2022/07/25 12:42:59;;;;;;;8.70;7.90;;;;;;;;;;4931676;28;21799;-57
2022/07/25 12:45:25;;;;;;;7.07;6.47;;;;;;;;;;4941097;28;20944;-56
2022/07/25 12:47:51;;;;;;;8.37;7.67;;;;;;;;;;4916447;28;20431;-57
2022/07/25 12:50:17;;;;;;;7.70;7.00;;;;;;;;;;4943398;28;20483;-56
2022/07/25 12:52:44;;;;;;;7.67;7.07;;;;;;;;;;4917690;28;20210;-54
2022/07/25 12:55:11;;;;;;;8.37;7.67;;;;;;;;;;4915716;28;20451;-56
2022/07/25 12:57:37;;;;;;;8.80;7.97;;;;;;;;;;4945546;28;20442;-57
2022/07/25 13:00:04;;;;;;;7.23;6.53;;;;;;;;;;4926410;28;20453;-56
2022/07/25 13:02:30;;;;;;;8.00;6.83;;;;;;;;;;4949260;28;20581;-56
2022/07/25 13:04:56;;;;;;;7.97;7.27;;;;;;;;;;4923612;28;20442;-57
2022/07/25 13:07:22;;;;;;;8.20;6.97;;;;;;;;;;4949737;28;20443;-57
2022/07/25 13:09:49;;;;;;;7.50;6.90;;;;;;;;;;4943098;28;20439;-57
2022/07/25 13:12:15;;;;;;;7.63;6.83;;;;;;;;;;4955561;28;20457;-58
2022/07/25 13:14:41;;;;;;;7.60;7.00;;;;;;;;;;4907355;28;20959;-57
2022/07/25 13:17:07;;;;;;;7.87;7.27;;;;;;;;;;4942667;28;21379;-57
2022/07/25 13:19:33;;;;;;;8.00;7.40;;;;;;;;;;4936261;28;20518;-58
2022/07/25 13:21:59;;;;;;;7.93;7.23;;;;;;;;;;4952665;28;20466;-58
2022/07/25 13:24:25;;;;;;;9.03;6.50;;;;;;;;;;4923928;28;20442;-58
2022/07/25 13:26:55;;;;;;;6.33;5.83;;;;;;;;;;4944565;28;20443;-58
2022/07/25 13:29:21;;;;;;;9.20;6.90;;;;;;;;;;4944593;28;20463;-57
2022/07/25 13:31:47;;;;;;;7.03;6.50;;;;;;;;;;4952004;28;20482;-59
2022/07/25 13:34:23;;;;;;;7.20;6.53;;;;;;;;;;4932818;28;20191;-57
2022/07/25 13:36:58;;;;;;;6.97;6.30;;;;;;;;;;4939937;28;20442;-57
2022/07/25 13:39:26;;;;;;;7.47;6.87;;;;;;;;;;4947028;28;20426;-58
2022/07/25 13:41:54;;;;;;;6.60;6.00;;;;;;;;;;4926610;28;20438;-57
2022/07/25 13:44:20;;;;;;;7.93;7.23;;;;;;;;;;4947164;28;20450;-57
2022/07/25 13:46:50;;;;;;;7.70;7.00;;;;;;;;;;4919659;28;20846;-59
2022/07/25 13:49:18;;;;;;;7.40;6.70;;;;;;;;;;4948838;28;20443;-58
2022/07/25 13:51:44;;;;;;;7.57;6.80;;;;;;;;;;4925052;28;20938;-58
2022/07/25 13:54:13;;;;;;;7.77;7.17;;;;;;;;;;4943884;28;20443;-58
2022/07/25 13:56:40;;;;;;;8.13;7.20;;;;;;;;;;4922429;28;20979;-57
2022/07/25 13:59:07;;;;;;;8.63;7.80;;;;;;;;;;4950552;28;20431;-57
2022/07/25 14:01:33;;;;;;;7.10;6.40;;;;;;;;;;4942288;28;20439;-57
2022/07/25 14:03:59;;;;;;;7.87;7.00;;;;;;;;;;4949129;28;20565;-58
2022/07/25 14:06:25;;;;;;;7.63;6.93;;;;;;;;;;4926207;28;20451;-57
2022/07/25 14:09:01;;;;;;;8.70;7.80;;;;;;;;;;4943753;28;20494;-58
2022/07/25 14:11:32;;;;;;;9.03;8.13;;;;;;;;;;4947167;28;20505;-56
2022/07/25 14:13:58;;;;;;;10.67;8.27;;;;;;;;;;4953584;28;20449;-57
2022/07/25 14:16:27;;;;;;;9.07;8.23;;;;;;;;;;4931572;28;20489;-59
2022/07/25 14:18:55;;;;;;;8.67;7.87;;;;;;;;;;4907698;28;20604;-56
2022/07/25 14:21:21;;;;;;;10.53;8.50;;;;;;;;;;4928097;28;20427;-57
2022/07/25 14:23:47;;;;;;;10.77;9.63;;;;;;;;;;4944986;28;20486;-57
2022/07/25 14:26:24;;;;;;;10.37;9.37;;;;;;;;;;4938221;28;20431;-56
2022/07/25 14:28:50;;;;;;;9.40;8.50;;;;;;;;;;4941663;28;20207;-57
2022/07/25 14:31:16;;;;;;;8.60;7.70;;;;;;;;;;4930423;28;20442;-58
2022/07/25 14:33:42;;;;;;;9.57;8.80;;;;;;;;;;4940656;28;20928;-57
2022/07/25 14:36:09;;;;;;;10.03;8.03;;;;;;;;;;4928046;28;20458;-62
2022/07/25 14:38:35;;;;;;;8.47;7.77;;;;;;;;;;4938021;28;20451;-57
2022/07/25 14:41:02;;;;;;;9.83;8.83;;;;;;;;;;4939815;28;20450;-57
2022/07/25 14:43:28;;;;;;;9.30;8.17;;;;;;;;;;4933301;28;20482;-58
2022/07/25 14:46:01;;;;;;;9.00;8.10;;;;;;;;;;4941923;28;20446;-57
2022/07/25 14:48:32;;;;;;;9.47;8.57;;;;;;;;;;4909202;28;20262;-57
2022/07/25 14:50:58;;;;;;;9.77;8.70;;;;;;;;;;4943116;28;20816;-57
2022/07/25 14:53:24;;;;;;;10.13;9.13;;;;;;;;;;4931748;28;20439;-57
2022/07/25 14:55:50;;;;;;;17.93;8.37;;;;;;;;;;4945892;28;20321;-57
2022/07/25 14:58:16;;;;;;;9.00;8.10;;;;;;;;;;4942873;28;21003;-57
2022/07/25 15:00:42;;;;;;;10.27;9.03;;;;;;;;;;4951798;28;22544;-57
2022/07/25 15:03:08;;;;;;;11.33;8.30;;;;;;;;;;4942042;28;20478;-57
2022/07/25 15:05:35;;;;;;;8.60;7.90;;;;;;;;;;4944927;28;20481;-58